Alexandria, Louisiana
Current Conditions -  °F | °C
As of 11:53 PM on Wednesday 22 Oct 2014 (Local Time) from KAEX Reporting Station
Clear Clear  
Wind Chill: 58°   Ceiling: Unl
Heat Index: 58°   Visibility: 10mi
Dew Point: 51°   Wind: 8mph
Humidity: 78%   Direction: 10°N
Pressure: 30.12"   Gusts: NA
Location:  31.31°N, 92.44°W
Report Text: KAEX 230453Z 01007KT 10SM CLR 14/11 A3012 RMK AO2 SLP203 T01440106
Loading
Personal Weather Stations






























Interactive Weather Map New forecast layout! Learn more

10-Day Weather Forecast

Advertisements
Track Severe Weather on mobile